createdAt,value
2023-04-06T00:04:18.412Z,99494.70
2023-04-06T00:09:23.890Z,99490.43
2023-04-06T00:14:31.036Z,99491.25
2023-04-06T00:19:36.745Z,99487.66
2023-04-06T00:24:43.723Z,99484.55
2023-04-06T00:29:51.046Z,99480.39
2023-04-06T00:34:58.081Z,99477.66
2023-04-06T00:45:47.052Z,99473.46
2023-04-06T00:50:54.724Z,99467.70
2023-04-06T00:56:02.114Z,99466.56
2023-04-06T01:01:09.798Z,99458.89
2023-04-06T01:06:17.435Z,99457.59
2023-04-06T01:11:25.784Z,99454.67
2023-04-06T01:16:33.125Z,99451.33
2023-04-06T01:21:40.352Z,99445.05
2023-04-06T01:26:50.223Z,99447.77
2023-04-06T01:31:57.815Z,99448.05
2023-04-06T01:37:05.431Z,99441.86
2023-04-06T01:42:12.984Z,99437.56
2023-04-06T01:47:20.498Z,99435.81
2023-04-06T01:52:28.060Z,99431.55
2023-04-06T01:57:36.381Z,99432.17
2023-04-06T02:02:43.928Z,99429.13
2023-04-06T02:07:53.316Z,99429.94
2023-04-06T02:13:01.560Z,99426.73
2023-04-06T02:18:09.653Z,99427.48
2023-04-06T02:23:17.402Z,99421.27
2023-04-06T02:28:25.239Z,99421.92
2023-04-06T02:33:33.148Z,99417.30
2023-04-06T02:38:40.942Z,99417.92
2023-04-06T02:43:49.205Z,99426.44
2023-04-06T02:48:57.610Z,99426.35
2023-04-06T02:54:05.901Z,99423.60
2023-04-06T02:59:13.520Z,99428.71
2023-04-06T03:04:22.953Z,99433.80
2023-04-06T03:09:30.691Z,99435.69
2023-04-06T03:14:38.566Z,99434.42
2023-04-06T03:19:46.135Z,99436.60
2023-04-06T03:24:53.684Z,99431.41
2023-04-06T03:30:01.894Z,99433.44
2023-04-06T03:35:11.350Z,99433.95
2023-04-06T03:40:19.846Z,99436.46
2023-04-06T03:45:27.625Z,99437.96
2023-04-06T03:50:35.238Z,99440.33
2023-04-06T04:05:39.761Z,99436.18
2023-04-06T04:10:47.861Z,99435.26
2023-04-06T04:15:55.493Z,99441.61
2023-04-06T04:21:03.085Z,99440.26
2023-04-06T04:26:11.924Z,99442.31
2023-04-06T04:31:21.361Z,99439.20
2023-04-06T04:36:29.524Z,99435.42
2023-04-06T04:41:39.295Z,99434.88
2023-04-06T04:46:46.685Z,99435.31
2023-04-06T04:51:54.440Z,99428.45
2023-04-06T04:57:02.013Z,99425.19
2023-04-06T05:02:09.760Z,99428.41
2023-04-06T05:07:19.929Z,99430.95
2023-04-06T05:12:28.947Z,99428.20
2023-04-06T05:17:36.574Z,99424.33
2023-04-06T05:22:43.950Z,99426.74
2023-04-06T05:27:51.616Z,99424.90
2023-04-06T05:32:58.955Z,99425.67
2023-04-06T05:38:06.396Z,99424.33
2023-04-06T05:43:13.806Z,99426.13
2023-04-06T05:54:12.041Z,99419.83
2023-04-06T05:59:16.395Z,99424.00
2023-04-06T06:04:20.645Z,99422.80
2023-04-06T06:09:25.075Z,99419.89
2023-04-06T06:14:29.516Z,99419.20
2023-04-06T06:19:33.316Z,99422.90
2023-04-06T06:24:37.192Z,99422.52
2023-04-06T06:29:41.114Z,99419.99
2023-04-06T06:34:44.988Z,99419.56
2023-04-06T06:39:48.877Z,99422.31
2023-04-06T06:44:53.261Z,99421.59
2023-04-06T06:54:37.142Z,99428.32
2023-04-06T06:59:44.469Z,99423.21
2023-04-06T07:04:54.492Z,99424.05
2023-04-06T07:10:02.327Z,99428.22
2023-04-06T07:15:11.783Z,99427.92
2023-04-06T07:20:20.004Z,99426.61
2023-04-06T07:25:27.606Z,99430.01
2023-04-06T07:30:36.977Z,99429.61
2023-04-06T07:35:44.797Z,99432.00
2023-04-06T07:40:52.715Z,99433.06
2023-04-06T07:46:01.441Z,99433.13
2023-04-06T07:51:10.252Z,99430.11
2023-04-06T07:56:18.076Z,99427.23
2023-04-06T08:01:26.396Z,99419.63
2023-04-06T08:06:33.914Z,99411.34
2023-04-06T08:11:41.840Z,99408.67
2023-04-06T08:16:49.341Z,99403.60
2023-04-06T08:21:57.556Z,99398.92
2023-04-06T08:27:05.318Z,99394.83
2023-04-06T08:32:12.880Z,99394.81
2023-04-06T08:37:20.172Z,99390.38
2023-04-06T08:42:31.257Z,99391.63
2023-04-06T08:47:40.479Z,99390.59
2023-04-06T08:52:50.782Z,99378.11
2023-04-06T08:57:59.200Z,99371.61
2023-04-06T09:03:08.758Z,99368.42
2023-04-06T09:08:16.621Z,99361.89
2023-04-06T09:13:24.082Z,99362.85
2023-04-06T09:18:35.762Z,99361.87
2023-04-06T09:23:43.712Z,99361.72
2023-04-06T09:28:52.684Z,99361.14
2023-04-06T09:34:01.423Z,99359.52
2023-04-06T09:39:09.338Z,99350.34
2023-04-06T09:44:17.227Z,99345.59
2023-04-06T09:49:26.886Z,99342.73
2023-04-06T09:54:35.232Z,99340.82
2023-04-06T09:59:53.344Z,99343.80
2023-04-06T10:05:08.067Z,99337.25
2023-04-06T10:10:17.138Z,99328.42
2023-04-06T10:15:27.458Z,99335.70
2023-04-06T10:20:43.274Z,99337.42
2023-04-06T10:25:59.160Z,99327.80
2023-04-06T10:31:09.638Z,99330.57
2023-04-06T10:36:24.534Z,99324.16
2023-04-06T10:41:38.290Z,99319.58
2023-04-06T10:46:58.265Z,99316.73
2023-04-06T10:52:08.557Z,99313.92
2023-04-06T10:57:16.550Z,99311.18
2023-04-06T11:02:27.170Z,99301.98
2023-04-06T11:07:36.107Z,99302.72
2023-04-06T11:12:43.796Z,99292.92
2023-04-06T11:17:51.595Z,99288.59
2023-04-06T11:23:00.353Z,99291.09
2023-04-06T11:28:07.875Z,99288.91
2023-04-06T11:33:22.234Z,99287.43
2023-04-06T11:38:29.643Z,99284.90
2023-04-06T11:43:37.150Z,99283.02
2023-04-06T11:54:08.003Z,99271.21
2023-04-06T11:59:15.529Z,99269.57
2023-04-06T12:04:23.101Z,99267.38
2023-04-06T12:09:31.158Z,99265.39
2023-04-06T12:14:38.858Z,99255.54
2023-04-06T12:19:45.177Z,99251.11
2023-04-06T12:24:52.749Z,99253.31
2023-04-06T12:30:00.303Z,99249.25
2023-04-06T12:35:10.135Z,99253.66
2023-04-06T12:40:18.928Z,99243.82
2023-04-06T12:45:26.760Z,99236.02
2023-04-06T12:50:34.468Z,99230.42
2023-04-06T12:55:43.180Z,99223.92
2023-04-06T13:00:51.387Z,99224.02
2023-04-06T13:05:58.943Z,99214.86
2023-04-06T13:11:09.492Z,99211.35
2023-04-06T13:16:18.232Z,99205.20
2023-04-06T13:21:26.273Z,99198.11
2023-04-06T13:26:34.486Z,99191.84
2023-04-06T13:31:42.746Z,99185.53
2023-04-06T13:36:50.882Z,99187.40
2023-04-06T13:41:59.073Z,99176.23
2023-04-06T13:47:07.190Z,99175.52
2023-04-06T13:52:14.778Z,99176.34
2023-04-06T13:57:22.828Z,99179.91
2023-04-06T14:02:30.334Z,99176.67
2023-04-06T14:07:38.320Z,99180.11
2023-04-06T14:12:47.998Z,99183.56
2023-04-06T14:17:55.939Z,99187.30
2023-04-06T14:23:05.234Z,99189.11
2023-04-06T14:28:12.466Z,99189.95
2023-04-06T14:33:18.584Z,99199.14
2023-04-06T14:38:26.225Z,99198.59
2023-04-06T14:43:33.692Z,99201.53
2023-04-06T14:48:41.703Z,99200.66
2023-04-06T14:53:49.220Z,99204.45
2023-04-06T14:58:59.922Z,99200.77
2023-04-06T15:04:09.126Z,99195.42
2023-04-06T15:09:17.433Z,99197.48
2023-04-06T15:14:25.615Z,99204.48
2023-04-06T15:19:33.086Z,99199.32
2023-04-06T15:24:41.301Z,99192.22
2023-04-06T15:29:49.958Z,99192.60
2023-04-06T15:35:00.148Z,99193.98
2023-04-06T15:40:09.927Z,99197.36
2023-04-06T15:45:18.174Z,99196.67
2023-04-06T15:50:26.205Z,99200.02
2023-04-06T15:55:34.686Z,99196.30
2023-04-06T16:00:42.780Z,99203.17
2023-04-06T16:11:01.961Z,99199.69
2023-04-06T16:16:11.130Z,99199.82
2023-04-06T16:21:20.067Z,99198.84
2023-04-06T16:26:28.264Z,99197.73
2023-04-06T16:31:35.666Z,99195.63
2023-04-06T16:36:43.806Z,99198.97
2023-04-06T16:41:51.834Z,99195.27
2023-04-06T16:47:00.433Z,99192.80
2023-04-06T16:52:08.494Z,99191.04
2023-04-06T16:57:16.689Z,99186.56
2023-04-06T17:02:24.303Z,99182.24
2023-04-06T17:07:33.274Z,99176.03
2023-04-06T17:12:40.482Z,99174.45
2023-04-06T17:17:47.148Z,99178.89
2023-04-06T17:22:55.177Z,99177.62
2023-04-06T17:28:03.015Z,99180.33
2023-04-06T17:33:10.804Z,99177.15
2023-04-06T17:38:18.400Z,99180.55
2023-04-06T17:43:26.201Z,99179.67
2023-04-06T17:48:33.719Z,99182.04
2023-04-06T17:53:41.686Z,99182.45
2023-04-06T18:03:56.654Z,99178.29
2023-04-06T18:09:04.914Z,99183.48
2023-04-06T18:14:14.019Z,99181.87
2023-04-06T18:19:21.832Z,99184.04
2023-04-06T18:24:41.342Z,99183.54
2023-04-06T18:29:50.671Z,99184.02
2023-04-06T18:34:59.133Z,99181.21
2023-04-06T18:40:08.703Z,99175.91
2023-04-06T18:45:16.545Z,99179.61
2023-04-06T18:50:23.852Z,99176.13
2023-04-06T18:55:33.678Z,99176.72
2023-04-06T19:00:43.632Z,99170.08
2023-04-06T19:05:51.191Z,99165.80
2023-04-06T19:10:58.510Z,99165.89
2023-04-06T19:16:04.463Z,99161.16
2023-04-06T19:21:19.001Z,99153.09
2023-04-06T19:26:28.341Z,99152.06
2023-04-06T19:31:36.203Z,99150.89
2023-04-06T19:36:44.023Z,99147.05
2023-04-06T19:41:53.099Z,99147.50
2023-04-06T19:52:45.953Z,99142.67
2023-04-06T19:57:53.343Z,99136.90
2023-04-06T20:03:01.534Z,99134.73
2023-04-06T20:08:09.279Z,99135.38
2023-04-06T20:13:17.719Z,99137.45
2023-04-06T20:18:25.231Z,99141.52
2023-04-06T20:23:35.431Z,99139.25
2023-04-06T20:28:43.008Z,99134.54
2023-04-06T20:33:50.439Z,99130.80
2023-04-06T20:38:58.435Z,99128.86
2023-04-06T20:44:06.934Z,99124.66
2023-04-06T20:49:15.396Z,99117.63
2023-04-06T20:54:22.931Z,99116.13
2023-04-06T20:59:30.714Z,99107.27
2023-04-06T21:04:39.451Z,99106.84
2023-04-06T21:09:46.826Z,99113.02
2023-04-06T21:14:54.282Z,99111.11
2023-04-06T21:20:01.622Z,99112.21
2023-04-06T21:25:12.268Z,99106.08
2023-04-06T21:30:20.730Z,99101.00
2023-04-06T21:35:27.848Z,99095.98
2023-04-06T21:40:33.452Z,99094.43
2023-04-06T21:45:41.347Z,99084.66
2023-04-06T21:52:54.381Z,99082.81
2023-04-06T21:58:01.905Z,99080.74
2023-04-06T22:03:09.533Z,99077.05
2023-04-06T22:08:25.515Z,99075.48
2023-04-06T22:13:38.217Z,99068.68
2023-04-06T22:18:45.670Z,99059.81
2023-04-06T22:23:53.179Z,99057.23
2023-04-06T22:28:58.908Z,99054.16
2023-04-06T22:34:06.943Z,99051.65
2023-04-06T22:39:14.440Z,99048.91
2023-04-06T22:44:20.390Z,99045.71
2023-04-06T22:54:37.186Z,99037.48
2023-04-06T22:59:42.734Z,99032.39
2023-04-06T23:04:50.028Z,99019.81
2023-04-06T23:09:56.298Z,99024.44
2023-04-06T23:15:03.330Z,99017.86
2023-04-06T23:20:10.252Z,99015.94
2023-04-06T23:25:17.498Z,99013.86
2023-04-06T23:30:23.264Z,99013.81
2023-04-06T23:35:30.772Z,99010.20
2023-04-06T23:40:40.434Z,99000.15
2023-04-06T23:45:47.735Z,98996.66
2023-04-06T23:50:54.835Z,98990.61
2023-04-06T23:56:02.146Z,98987.43
